Map

Track Data

SID SEASON NUMBER BASIN SUBBASIN NAME ISO_TIME NATURE LAT LON WMO_WIND WMO_PRES WMO_AGENCY TRACK_TYPE DIST2LAND LANDFALL IFLAG USA_AGENCY USA_ATCF_ID USA_LAT USA_LON USA_RECORD USA_STATUS USA_WIND USA_PRES USA_SSHS USA_R34_NE USA_R34_SE USA_R34_SW USA_R34_NW USA_R50_NE USA_R50_SE USA_R50_SW USA_R50_NW USA_R64_NE USA_R64_SE USA_R64_SW USA_R64_NW USA_POCI USA_ROCI USA_RMW USA_EYE TOKYO_LAT TOKYO_LON TOKYO_GRADE TOKYO_WIND TOKYO_PRES TOKYO_R50_DIR TOKYO_R50_LONG TOKYO_R50_SHORT TOKYO_R30_DIR TOKYO_R30_LONG TOKYO_R30_SHORT TOKYO_LAND CMA_LAT CMA_LON CMA_CAT CMA_WIND CMA_PRES HKO_LAT HKO_LON HKO_CAT HKO_WIND HKO_PRES NEWDELHI_LAT NEWDELHI_LON NEWDELHI_GRADE NEWDELHI_WIND NEWDELHI_PRES NEWDELHI_CI NEWDELHI_DP NEWDELHI_POCI REUNION_LAT REUNION_LON REUNION_TYPE REUNION_WIND REUNION_PRES REUNION_TNUM REUNION_CI REUNION_RMW REUNION_R34_NE REUNION_R34_SE REUNION_R34_SW REUNION_R34_NW REUNION_R50_NE REUNION_R50_SE REUNION_R50_SW REUNION_R50_NW REUNION_R64_NE REUNION_R64_SE REUNION_R64_SW REUNION_R64_NW BOM_LAT BOM_LON BOM_TYPE BOM_WIND BOM_PRES BOM_TNUM BOM_CI BOM_RMW BOM_R34_NE BOM_R34_SE BOM_R34_SW BOM_R34_NW BOM_R50_NE BOM_R50_SE BOM_R50_SW BOM_R50_NW BOM_R64_NE BOM_R64_SE BOM_R64_SW BOM_R64_NW BOM_ROCI BOM_POCI BOM_EYE BOM_POS_METHOD BOM_PRES_METHOD NADI_LAT NADI_LON NADI_CAT NADI_WIND NADI_PRES WELLINGTON_LAT WELLINGTON_LON WELLINGTON_WIND WELLINGTON_PRES DS824_LAT DS824_LON DS824_STAGE DS824_WIND DS824_PRES TD9636_LAT TD9636_LON TD9636_STAGE TD9636_WIND TD9636_PRES TD9635_LAT TD9635_LON TD9635_WIND TD9635_PRES TD9635_ROCI NEUMANN_LAT NEUMANN_LON NEUMANN_CLASS NEUMANN_WIND NEUMANN_PRES MLC_LAT MLC_LON MLC_CLASS MLC_WIND MLC_PRES USA_GUST BOM_GUST BOM_GUST_PER REUNION_GUST REUNION_GUST_PER USA_SEAHGT USA_SEARAD_NE USA_SEARAD_SE USA_SEARAD_SW USA_SEARAD_NW STORM_SPEED STORM_DIR
1947294N09092 1947 85 NI BB NOT_NAMED 1947-10-20 18:00:00 TS 8.50000 92.3000 main 456 456 O________O____ jtwc_io IO131947 8.50000 92.3000 -1 8.50000 92.3000 TC 2 313
1947294N09092 1947 85 NI BB NOT_NAMED 1947-10-20 21:00:00 TS 8.58500 92.2100 main 471 471 P________P____ IO131947 8.58500 92.2100 -1 8.58500 92.2100 TC 3 315
1947294N09092 1947 85 NI BB NOT_NAMED 1947-10-21 00:00:00 TS 8.70000 92.1000 main 487 487 O________O____ jtwc_io IO131947 8.70000 92.1000 -1 8.70000 92.1000 TC 25 4 320
1947294N09092 1947 85 NI BB NOT_NAMED 1947-10-21 03:00:00 TS 8.87334 91.9622 main 511 511 P________PO___ IO131947 8.87000 91.9575 -1 8.87000 91.9575 TC 25 8.90000 92.0000 1 5 325
1947294N09092 1947 85 NI BB NOT_NAMED 1947-10-21 06:00:00 TS 9.10969 91.8063 main 542 542 O________OP___ jtwc_io IO131947 9.10000 91.8000 -1 9.10000 91.8000 TC 25 9.14846 91.8314 1 6 329
1947294N09092 1947 85 NI BB NOT_NAMED 1947-10-21 09:00:00 TS 9.38567 91.6582 main 574 574 P________PP___ IO131947 9.37749 91.6575 -1 9.37749 91.6575 TC 25 9.40751 91.6602 1 7 332
1947294N09092 1947 85 NI BB NOT_NAMED 1947-10-21 12:00:00 TS 9.69593 91.4946 main 614 614 O________OP___ jtwc_io IO131947 9.70000 91.5000 -1 9.70000 91.5000 TC 25 9.68780 91.4839 1 7 331
1947294N09092 1947 85 NI BB NOT_NAMED 1947-10-21 15:00:00 TS 10.0233 91.3050 main 654 654 P________PO___ IO131947 10.0350 91.3075 -1 10.0350 91.3075 TC 30 10.0000 91.3000 2 8 331
1947294N09092 1947 85 NI BB NOT_NAMED 1947-10-21 18:00:00 TS 10.3845 91.1023 main 702 679 O________OP___ jtwc_io IO131947 10.4000 91.1000 -1 10.4000 91.1000 TC 35 10.3535 91.1070 2 8 332
1947294N09092 1947 85 NI BB NOT_NAMED 1947-10-21 21:00:00 TS 10.7642 90.9023 main 675 652 P________PP___ IO131947 10.7700 90.8999 -1 10.7700 90.8999 TC 35 10.7526 90.9072 2 9 334
1947294N09092 1947 85 NI BB NOT_NAMED 1947-10-22 00:00:00 TS 11.2001 90.7013 main 652 623 O________OP___ jtwc_io IO131947 11.2000 90.7000 -1 11.2000 90.7000 TC 35 11.2004 90.7038 2 10 337
1947294N09092 1947 85 NI BB NOT_NAMED 1947-10-22 03:00:00 TS 11.7133 90.5000 main 623 598 P________PO___ IO131947 11.7200 90.4999 -1 11.7200 90.4999 TC 35 11.7000 90.5000 3 12 340
1947294N09092 1947 85 NI BB NOT_NAMED 1947-10-22 06:00:00 TS 12.2806 90.2933 main 590 567 O________OP___ jtwc_io IO131947 12.3000 90.3000 -1 12.3000 90.3000 TC 35 12.2417 90.2799 3 12 341
1947294N09092 1947 85 NI BB NOT_NAMED 1947-10-22 09:00:00 TS 12.8726 90.0876 main 561 540 P________PP___ IO131947 12.8925 90.0999 -1 12.8925 90.0999 TC 35 12.8327 90.0629 3 13 342
1947294N09092 1947 85 NI BB NOT_NAMED 1947-10-22 12:00:00 TS 13.4858 89.8881 main 540 528 O________OP___ jtwc_io IO131947 13.5000 89.9000 -1 13.5000 89.9000 TC 35 13.4573 89.8643 3 13 342
1947294N09092 1947 85 NI BB NOT_NAMED 1947-10-22 15:00:00 TS 14.0950 89.6851 main 528 517 P________PO___ IO131947 14.0925 89.6776 -1 14.0925 89.6776 TC 35 14.1000 89.7000 3 13 344
1947294N09092 1947 85 NI BB NOT_NAMED 1947-10-22 18:00:00 TS 14.7191 89.5324 main 524 509 O________OP___ jtwc_io IO131947 14.7000 89.5000 -1 14.7000 89.5000 TC 35 14.7476 89.5810 3 13 350
1947294N09092 1947 85 NI BB NOT_NAMED 1947-10-22 21:00:00 TS 15.3645 89.4541 main 507 507 P________PP___ IO131947 15.3400 89.4199 -1 15.3400 89.4199 TC 50 15.3973 89.4997 3 13 355
1947294N09092 1947 85 NI BB NOT_NAMED 1947-10-23 00:00:00 TS 16.0242 89.4218 main 513 486 O________OP___ jtwc_io IO131947 16.0000 89.4000 -1 16.0000 89.4000 TC 65 16.0483 89.4436 3 13 358
1947294N09092 1947 85 NI BB NOT_NAMED 1947-10-23 03:00:00 NR 16.7000 89.4000 main 486 __________O___ IO131947 -1 TC 16.7000 89.4000 4 14 358

About IBTrACS Database

This database is a web-friendly format of International Best Track Archive for Climate Stewardship (IBTrACS), a global best track data archive curated by NOAA dating back to 1842.

Updated: 2021-12-06